sensor_id;sensor_type;location;lat;lon;timestamp;P1;durP1;ratioP1;P2;durP2;ratioP2
35540;SDS011;21650;48.840;9.162;2022-07-23T00:00:14;5.90;;;4.97;;
35540;SDS011;21650;48.840;9.162;2022-07-23T00:02:40;4.83;;;4.30;;
35540;SDS011;21650;48.840;9.162;2022-07-23T04:00:44;5.10;;;4.60;;
35540;SDS011;21650;48.840;9.162;2022-07-23T04:03:10;7.73;;;4.83;;
35540;SDS011;21650;48.840;9.162;2022-07-23T04:05:35;5.90;;;5.07;;
35540;SDS011;21650;48.840;9.162;2022-07-23T04:08:01;5.00;;;4.50;;
35540;SDS011;21650;48.840;9.162;2022-07-23T04:10:26;7.37;;;4.50;;
35540;SDS011;21650;48.840;9.162;2022-07-23T04:12:52;4.90;;;4.40;;
35540;SDS011;21650;48.840;9.162;2022-07-23T04:15:18;6.10;;;4.37;;
35540;SDS011;21650;48.840;9.162;2022-07-23T04:17:44;6.47;;;5.00;;
35540;SDS011;21650;48.840;9.162;2022-07-23T04:20:11;7.93;;;5.03;;
35540;SDS011;21650;48.840;9.162;2022-07-23T04:22:37;5.37;;;4.87;;
35540;SDS011;21650;48.840;9.162;2022-07-23T04:25:03;5.03;;;4.57;;
35540;SDS011;21650;48.840;9.162;2022-07-23T04:27:29;5.60;;;4.77;;
35540;SDS011;21650;48.840;9.162;2022-07-23T04:29:58;6.03;;;5.43;;
35540;SDS011;21650;48.840;9.162;2022-07-23T04:32:24;5.40;;;4.90;;
35540;SDS011;21650;48.840;9.162;2022-07-23T04:34:49;5.07;;;4.53;;
35540;SDS011;21650;48.840;9.162;2022-07-23T04:37:15;5.80;;;5.20;;
35540;SDS011;21650;48.840;9.162;2022-07-23T04:39:40;7.90;;;5.37;;
35540;SDS011;21650;48.840;9.162;2022-07-23T04:42:06;5.47;;;4.97;;
35540;SDS011;21650;48.840;9.162;2022-07-23T04:44:32;6.93;;;5.60;;
35540;SDS011;21650;48.840;9.162;2022-07-23T04:46:57;5.33;;;4.83;;
35540;SDS011;21650;48.840;9.162;2022-07-23T04:49:23;5.30;;;4.57;;
35540;SDS011;21650;48.840;9.162;2022-07-23T04:51:48;5.33;;;4.70;;
35540;SDS011;21650;48.840;9.162;2022-07-23T04:54:14;6.07;;;4.53;;
35540;SDS011;21650;48.840;9.162;2022-07-23T04:56:40;6.30;;;4.40;;
35540;SDS011;21650;48.840;9.162;2022-07-23T04:59:05;5.17;;;4.77;;
35540;SDS011;21650;48.840;9.162;2022-07-23T05:01:31;6.83;;;5.10;;
35540;SDS011;21650;48.840;9.162;2022-07-23T05:03:56;7.97;;;5.23;;
35540;SDS011;21650;48.840;9.162;2022-07-23T05:06:22;5.50;;;4.93;;
35540;SDS011;21650;48.840;9.162;2022-07-23T05:08:47;5.60;;;4.43;;
35540;SDS011;21650;48.840;9.162;2022-07-23T05:11:13;6.07;;;5.47;;
35540;SDS011;21650;48.840;9.162;2022-07-23T05:13:39;5.17;;;4.63;;
35540;SDS011;21650;48.840;9.162;2022-07-23T05:16:04;5.47;;;4.90;;
35540;SDS011;21650;48.840;9.162;2022-07-23T05:18:30;5.73;;;4.60;;
35540;SDS011;21650;48.840;9.162;2022-07-23T05:20:56;6.10;;;5.17;;
35540;SDS011;21650;48.840;9.162;2022-07-23T05:23:21;5.77;;;4.13;;
35540;SDS011;21650;48.840;9.162;2022-07-23T05:25:47;5.07;;;4.60;;
35540;SDS011;21650;48.840;9.162;2022-07-23T05:28:12;5.13;;;4.63;;
35540;SDS011;21650;48.840;9.162;2022-07-23T05:30:38;5.10;;;4.60;;
35540;SDS011;21650;48.840;9.162;2022-07-23T05:33:03;6.40;;;4.97;;
35540;SDS011;21650;48.840;9.162;2022-07-23T05:35:29;6.50;;;4.87;;
35540;SDS011;21650;48.840;9.162;2022-07-23T05:37:55;6.67;;;5.60;;
35540;SDS011;21650;48.840;9.162;2022-07-23T05:40:20;7.17;;;5.10;;
35540;SDS011;21650;48.840;9.162;2022-07-23T05:42:46;5.80;;;5.20;;
35540;SDS011;21650;48.840;9.162;2022-07-23T05:45:11;5.00;;;4.60;;
35540;SDS011;21650;48.840;9.162;2022-07-23T05:50:11;5.97;;;4.77;;
35540;SDS011;21650;48.840;9.162;2022-07-23T05:52:37;5.53;;;4.90;;
35540;SDS011;21650;48.840;9.162;2022-07-23T05:55:03;5.67;;;5.03;;
35540;SDS011;21650;48.840;9.162;2022-07-23T05:57:29;6.53;;;4.97;;
35540;SDS011;21650;48.840;9.162;2022-07-23T05:59:55;7.00;;;5.10;;
35540;SDS011;21650;48.840;9.162;2022-07-23T06:02:20;5.90;;;5.40;;
35540;SDS011;21650;48.840;9.162;2022-07-23T06:04:46;6.13;;;5.13;;
35540;SDS011;21650;48.840;9.162;2022-07-23T06:07:11;5.63;;;5.13;;
35540;SDS011;21650;48.840;9.162;2022-07-23T06:09:37;5.73;;;5.20;;
35540;SDS011;21650;48.840;9.162;2022-07-23T06:12:03;6.87;;;5.27;;
35540;SDS011;21650;48.840;9.162;2022-07-23T06:14:29;7.43;;;5.73;;
35540;SDS011;21650;48.840;9.162;2022-07-23T06:16:54;9.90;;;5.47;;
35540;SDS011;21650;48.840;9.162;2022-07-23T06:19:20;6.83;;;5.43;;
35540;SDS011;21650;48.840;9.162;2022-07-23T06:21:46;8.00;;;5.93;;
35540;SDS011;21650;48.840;9.162;2022-07-23T06:24:11;6.97;;;5.23;;
35540;SDS011;21650;48.840;9.162;2022-07-23T06:26:37;8.70;;;6.03;;
35540;SDS011;21650;48.840;9.162;2022-07-23T06:29:02;10.00;;;5.73;;
35540;SDS011;21650;48.840;9.162;2022-07-23T06:31:30;8.93;;;5.97;;
35540;SDS011;21650;48.840;9.162;2022-07-23T06:33:57;6.57;;;5.40;;
35540;SDS011;21650;48.840;9.162;2022-07-23T06:36:24;7.73;;;5.67;;
35540;SDS011;21650;48.840;9.162;2022-07-23T06:38:49;10.47;;;5.87;;
35540;SDS011;21650;48.840;9.162;2022-07-23T06:41:15;5.93;;;5.13;;
35540;SDS011;21650;48.840;9.162;2022-07-23T06:43:40;6.73;;;5.77;;
35540;SDS011;21650;48.840;9.162;2022-07-23T06:46:06;7.17;;;5.87;;
35540;SDS011;21650;48.840;9.162;2022-07-23T06:48:31;6.53;;;5.87;;
35540;SDS011;21650;48.840;9.162;2022-07-23T06:50:59;6.50;;;5.57;;
35540;SDS011;21650;48.840;9.162;2022-07-23T06:53:24;6.60;;;5.77;;
35540;SDS011;21650;48.840;9.162;2022-07-23T06:55:50;8.43;;;6.33;;
35540;SDS011;21650;48.840;9.162;2022-07-23T06:58:15;6.30;;;5.67;;
35540;SDS011;21650;48.840;9.162;2022-07-23T07:00:41;8.73;;;6.00;;
35540;SDS011;21650;48.840;9.162;2022-07-23T07:03:06;7.53;;;6.70;;
35540;SDS011;21650;48.840;9.162;2022-07-23T07:05:32;8.10;;;5.77;;
35540;SDS011;21650;48.840;9.162;2022-07-23T07:07:57;7.40;;;6.47;;
35540;SDS011;21650;48.840;9.162;2022-07-23T07:10:23;11.07;;;6.47;;
35540;SDS011;21650;48.840;9.162;2022-07-23T07:12:49;10.20;;;7.07;;
35540;SDS011;21650;48.840;9.162;2022-07-23T07:15:14;7.27;;;6.13;;
35540;SDS011;21650;48.840;9.162;2022-07-23T07:17:40;7.20;;;6.50;;
35540;SDS011;21650;48.840;9.162;2022-07-23T07:20:07;8.37;;;6.10;;
35540;SDS011;21650;48.840;9.162;2022-07-23T07:22:33;6.27;;;5.67;;
35540;SDS011;21650;48.840;9.162;2022-07-23T07:24:58;8.23;;;5.50;;
35540;SDS011;21650;48.840;9.162;2022-07-23T07:27:24;7.60;;;5.80;;
35540;SDS011;21650;48.840;9.162;2022-07-23T07:29:49;7.87;;;6.63;;
35540;SDS011;21650;48.840;9.162;2022-07-23T07:32:15;8.37;;;6.67;;
35540;SDS011;21650;48.840;9.162;2022-07-23T07:34:40;8.27;;;6.77;;
35540;SDS011;21650;48.840;9.162;2022-07-23T07:37:06;9.70;;;6.90;;
35540;SDS011;21650;48.840;9.162;2022-07-23T07:39:31;9.40;;;7.07;;
35540;SDS011;21650;48.840;9.162;2022-07-23T07:41:57;9.47;;;8.03;;
35540;SDS011;21650;48.840;9.162;2022-07-23T07:44:22;10.53;;;6.93;;
35540;SDS011;21650;48.840;9.162;2022-07-23T07:46:48;8.97;;;6.73;;
35540;SDS011;21650;48.840;9.162;2022-07-23T07:49:13;8.20;;;6.53;;
35540;SDS011;21650;48.840;9.162;2022-07-23T07:51:39;9.73;;;7.27;;
35540;SDS011;21650;48.840;9.162;2022-07-23T07:54:05;10.53;;;6.53;;
35540;SDS011;21650;48.840;9.162;2022-07-23T07:56:30;8.93;;;7.57;;
35540;SDS011;21650;48.840;9.162;2022-07-23T07:58:56;7.67;;;6.83;;
35540;SDS011;21650;48.840;9.162;2022-07-23T08:01:21;8.20;;;6.67;;
35540;SDS011;21650;48.840;9.162;2022-07-23T08:03:47;7.83;;;6.60;;
35540;SDS011;21650;48.840;9.162;2022-07-23T08:06:12;7.93;;;6.83;;
35540;SDS011;21650;48.840;9.162;2022-07-23T08:08:38;7.20;;;6.43;;
35540;SDS011;21650;48.840;9.162;2022-07-23T08:11:03;8.60;;;6.97;;
35540;SDS011;21650;48.840;9.162;2022-07-23T08:13:29;7.87;;;6.60;;
35540;SDS011;21650;48.840;9.162;2022-07-23T08:15:54;7.13;;;6.43;;
35540;SDS011;21650;48.840;9.162;2022-07-23T08:18:20;7.10;;;6.40;;
35540;SDS011;21650;48.840;9.162;2022-07-23T08:20:46;8.03;;;6.87;;
35540;SDS011;21650;48.840;9.162;2022-07-23T08:23:11;8.60;;;6.63;;
35540;SDS011;21650;48.840;9.162;2022-07-23T08:25:38;6.53;;;5.93;;
35540;SDS011;21650;48.840;9.162;2022-07-23T08:28:06;9.20;;;6.87;;
35540;SDS011;21650;48.840;9.162;2022-07-23T08:30:34;7.37;;;6.40;;
35540;SDS011;21650;48.840;9.162;2022-07-23T08:33:02;6.97;;;5.83;;
35540;SDS011;21650;48.840;9.162;2022-07-23T08:38:01;7.03;;;6.07;;
35540;SDS011;21650;48.840;9.162;2022-07-23T08:40:29;6.57;;;5.73;;
35540;SDS011;21650;48.840;9.162;2022-07-23T08:42:56;6.87;;;6.17;;
35540;SDS011;21650;48.840;9.162;2022-07-23T08:45:23;6.83;;;6.23;;
35540;SDS011;21650;48.840;9.162;2022-07-23T08:47:51;7.83;;;7.03;;
35540;SDS011;21650;48.840;9.162;2022-07-23T08:50:22;7.17;;;6.47;;
35540;SDS011;21650;48.840;9.162;2022-07-23T08:52:49;6.67;;;4.83;;
35540;SDS011;21650;48.840;9.162;2022-07-23T08:55:18;5.60;;;5.10;;
35540;SDS011;21650;48.840;9.162;2022-07-23T08:57:48;7.10;;;5.33;;
35540;SDS011;21650;48.840;9.162;2022-07-23T09:00:16;5.25;;;4.57;;
35540;SDS011;21650;48.840;9.162;2022-07-23T09:02:43;6.80;;;5.45;;
35540;SDS011;21650;48.840;9.162;2022-07-23T09:05:09;8.73;;;4.95;;
35540;SDS011;21650;48.840;9.162;2022-07-23T09:07:37;5.95;;;5.30;;
35540;SDS011;21650;48.840;9.162;2022-07-23T09:10:22;6.03;;;5.00;;
35540;SDS011;21650;48.840;9.162;2022-07-23T09:12:48;6.70;;;4.65;;
35540;SDS011;21650;48.840;9.162;2022-07-23T09:15:14;5.53;;;5.03;;
35540;SDS011;21650;48.840;9.162;2022-07-23T09:17:40;5.75;;;5.22;;
35540;SDS011;21650;48.840;9.162;2022-07-23T09:20:14;5.35;;;4.85;;
35540;SDS011;21650;48.840;9.162;2022-07-23T09:22:45;7.63;;;5.15;;
35540;SDS011;21650;48.840;9.162;2022-07-23T09:30:10;7.28;;;5.72;;
35540;SDS011;21650;48.840;9.162;2022-07-23T09:32:36;6.55;;;4.90;;
35540;SDS011;21650;48.840;9.162;2022-07-23T09:35:01;5.95;;;5.28;;
35540;SDS011;21650;48.840;9.162;2022-07-23T09:37:27;6.07;;;5.25;;
35540;SDS011;21650;48.840;9.162;2022-07-23T09:39:52;8.43;;;5.13;;
35540;SDS011;21650;48.840;9.162;2022-07-23T09:42:30;5.15;;;4.65;;
35540;SDS011;21650;48.840;9.162;2022-07-23T09:44:56;6.03;;;5.40;;
35540;SDS011;21650;48.840;9.162;2022-07-23T09:47:24;5.65;;;5.00;;
35540;SDS011;21650;48.840;9.162;2022-07-23T09:50:26;5.85;;;5.25;;
35540;SDS011;21650;48.840;9.162;2022-07-23T09:52:46;5.63;;;4.85;;
35540;SDS011;21650;48.840;9.162;2022-07-23T09:55:14;5.65;;;5.05;;
35540;SDS011;21650;48.840;9.162;2022-07-23T09:57:40;8.05;;;5.45;;
35540;SDS011;21650;48.840;9.162;2022-07-23T10:00:08;6.68;;;5.07;;
35540;SDS011;21650;48.840;9.162;2022-07-23T10:02:35;6.00;;;5.28;;
35540;SDS011;21650;48.840;9.162;2022-07-23T10:05:02;5.15;;;4.65;;
35540;SDS011;21650;48.840;9.162;2022-07-23T10:07:28;6.22;;;5.38;;
35540;SDS011;21650;48.840;9.162;2022-07-23T10:09:58;5.95;;;5.10;;
35540;SDS011;21650;48.840;9.162;2022-07-23T10:12:24;5.60;;;4.88;;
35540;SDS011;21650;48.840;9.162;2022-07-23T10:15:02;5.35;;;4.40;;
35540;SDS011;21650;48.840;9.162;2022-07-23T10:17:31;4.93;;;4.43;;
35540;SDS011;21650;48.840;9.162;2022-07-23T10:19:56;4.75;;;4.35;;
35540;SDS011;21650;48.840;9.162;2022-07-23T10:22:23;5.18;;;4.68;;
35540;SDS011;21650;48.840;9.162;2022-07-23T10:27:50;5.30;;;4.80;;
35540;SDS011;21650;48.840;9.162;2022-07-23T10:30:28;5.63;;;4.35;;
35540;SDS011;21650;48.840;9.162;2022-07-23T10:36:16;6.43;;;5.43;;
35540;SDS011;21650;48.840;9.162;2022-07-23T10:38:55;7.68;;;5.85;;
35540;SDS011;21650;48.840;9.162;2022-07-23T10:41:51;5.88;;;5.30;;
35540;SDS011;21650;48.840;9.162;2022-07-23T10:44:18;6.70;;;6.10;;
35540;SDS011;21650;48.840;9.162;2022-07-23T10:47:00;6.45;;;5.25;;
35540;SDS011;21650;48.840;9.162;2022-07-23T10:49:27;6.05;;;5.38;;
35540;SDS011;21650;48.840;9.162;2022-07-23T10:52:15;6.93;;;5.60;;
35540;SDS011;21650;48.840;9.162;2022-07-23T10:57:06;5.72;;;5.22;;
35540;SDS011;21650;48.840;9.162;2022-07-23T11:02:27;5.85;;;5.22;;
35540;SDS011;21650;48.840;9.162;2022-07-23T11:04:56;5.93;;;5.32;;
35540;SDS011;21650;48.840;9.162;2022-07-23T11:07:25;5.80;;;4.45;;
35540;SDS011;21650;48.840;9.162;2022-07-23T11:09:51;5.65;;;4.80;;
35540;SDS011;21650;48.840;9.162;2022-07-23T11:15:04;5.28;;;4.78;;
35540;SDS011;21650;48.840;9.162;2022-07-23T11:17:35;5.25;;;4.70;;
35540;SDS011;21650;48.840;9.162;2022-07-23T11:20:16;4.35;;;4.00;;
35540;SDS011;21650;48.840;9.162;2022-07-23T11:25:12;5.28;;;4.82;;
35540;SDS011;21650;48.840;9.162;2022-07-23T11:27:42;5.13;;;4.63;;
35540;SDS011;21650;48.840;9.162;2022-07-23T11:30:10;4.80;;;4.40;;
35540;SDS011;21650;48.840;9.162;2022-07-23T11:33:17;6.72;;;4.75;;
35540;SDS011;21650;48.840;9.162;2022-07-23T11:35:43;6.95;;;5.15;;
35540;SDS011;21650;48.840;9.162;2022-07-23T11:38:14;7.07;;;4.88;;
35540;SDS011;21650;48.840;9.162;2022-07-23T11:40:40;4.95;;;4.55;;
35540;SDS011;21650;48.840;9.162;2022-07-23T11:43:08;5.30;;;4.78;;
35540;SDS011;21650;48.840;9.162;2022-07-23T11:45:36;5.95;;;5.38;;
35540;SDS011;21650;48.840;9.162;2022-07-23T11:48:08;6.32;;;5.72;;
35540;SDS011;21650;48.840;9.162;2022-07-23T11:50:35;7.22;;;6.53;;
35540;SDS011;21650;48.840;9.162;2022-07-23T11:53:02;8.18;;;7.10;;
35540;SDS011;21650;48.840;9.162;2022-07-23T11:55:28;7.00;;;5.85;;
35540;SDS011;21650;48.840;9.162;2022-07-23T11:57:55;6.65;;;5.95;;
35540;SDS011;21650;48.840;9.162;2022-07-23T12:00:22;5.65;;;5.07;;
35540;SDS011;21650;48.840;9.162;2022-07-23T12:02:54;6.38;;;5.28;;
35540;SDS011;21650;48.840;9.162;2022-07-23T12:05:26;5.75;;;5.25;;
35540;SDS011;21650;48.840;9.162;2022-07-23T12:07:57;5.65;;;5.15;;
35540;SDS011;21650;48.840;9.162;2022-07-23T12:10:30;6.38;;;5.20;;
35540;SDS011;21650;48.840;9.162;2022-07-23T12:13:13;6.68;;;4.55;;
35540;SDS011;21650;48.840;9.162;2022-07-23T12:15:48;5.78;;;5.30;;
35540;SDS011;21650;48.840;9.162;2022-07-23T12:18:16;10.52;;;5.95;;
35540;SDS011;21650;48.840;9.162;2022-07-23T12:20:54;6.38;;;5.78;;
35540;SDS011;21650;48.840;9.162;2022-07-23T12:23:22;7.32;;;6.50;;
35540;SDS011;21650;48.840;9.162;2022-07-23T12:25:51;7.72;;;6.40;;
35540;SDS011;21650;48.840;9.162;2022-07-23T12:28:22;6.32;;;5.72;;
35540;SDS011;21650;48.840;9.162;2022-07-23T12:30:55;6.20;;;5.60;;
35540;SDS011;21650;48.840;9.162;2022-07-23T12:33:22;9.98;;;7.93;;
35540;SDS011;21650;48.840;9.162;2022-07-23T12:35:56;5.90;;;5.22;;
35540;SDS011;21650;48.840;9.162;2022-07-23T12:38:24;5.78;;;5.25;;
35540;SDS011;21650;48.840;9.162;2022-07-23T12:40:52;7.15;;;5.78;;
35540;SDS011;21650;48.840;9.162;2022-07-23T12:43:26;6.10;;;5.10;;
35540;SDS011;21650;48.840;9.162;2022-07-23T12:48:30;6.68;;;5.90;;
35540;SDS011;21650;48.840;9.162;2022-07-23T12:51:21;6.20;;;5.18;;
35540;SDS011;21650;48.840;9.162;2022-07-23T12:53:52;7.45;;;5.68;;
35540;SDS011;21650;48.840;9.162;2022-07-23T12:56:30;6.15;;;5.32;;
35540;SDS011;21650;48.840;9.162;2022-07-23T12:58:57;6.13;;;5.10;;
35540;SDS011;21650;48.840;9.162;2022-07-23T13:01:35;6.85;;;5.35;;
35540;SDS011;21650;48.840;9.162;2022-07-23T13:04:06;6.00;;;5.13;;
35540;SDS011;21650;48.840;9.162;2022-07-23T13:06:34;6.53;;;5.68;;
35540;SDS011;21650;48.840;9.162;2022-07-23T13:09:01;5.97;;;5.43;;
35540;SDS011;21650;48.840;9.162;2022-07-23T13:11:27;6.88;;;5.50;;
35540;SDS011;21650;48.840;9.162;2022-07-23T13:13:53;6.88;;;6.07;;
35540;SDS011;21650;48.840;9.162;2022-07-23T13:16:19;6.20;;;5.68;;
35540;SDS011;21650;48.840;9.162;2022-07-23T13:18:44;6.43;;;5.82;;
35540;SDS011;21650;48.840;9.162;2022-07-23T13:21:10;6.80;;;6.07;;
35540;SDS011;21650;48.840;9.162;2022-07-23T13:23:36;9.48;;;5.78;;
35540;SDS011;21650;48.840;9.162;2022-07-23T13:26:01;7.35;;;5.47;;
35540;SDS011;21650;48.840;9.162;2022-07-23T13:28:27;7.13;;;6.43;;
35540;SDS011;21650;48.840;9.162;2022-07-23T13:30:53;7.22;;;6.28;;
35540;SDS011;21650;48.840;9.162;2022-07-23T13:33:19;7.22;;;6.53;;
35540;SDS011;21650;48.840;9.162;2022-07-23T13:35:46;8.32;;;6.60;;
35540;SDS011;21650;48.840;9.162;2022-07-23T13:38:12;7.25;;;6.55;;
35540;SDS011;21650;48.840;9.162;2022-07-23T13:40:39;6.50;;;5.82;;
35540;SDS011;21650;48.840;9.162;2022-07-23T13:43:07;7.95;;;7.18;;
35540;SDS011;21650;48.840;9.162;2022-07-23T13:45:37;7.78;;;7.07;;
35540;SDS011;21650;48.840;9.162;2022-07-23T13:48:03;8.00;;;6.57;;
35540;SDS011;21650;48.840;9.162;2022-07-23T13:50:29;7.20;;;6.50;;
35540;SDS011;21650;48.840;9.162;2022-07-23T13:52:54;6.72;;;6.10;;
35540;SDS011;21650;48.840;9.162;2022-07-23T13:55:20;6.75;;;6.18;;
35540;SDS011;21650;48.840;9.162;2022-07-23T13:57:45;8.68;;;5.82;;
35540;SDS011;21650;48.840;9.162;2022-07-23T14:00:11;7.18;;;5.68;;
35540;SDS011;21650;48.840;9.162;2022-07-23T14:02:38;6.90;;;6.20;;
35540;SDS011;21650;48.840;9.162;2022-07-23T14:05:05;7.45;;;6.75;;
35540;SDS011;21650;48.840;9.162;2022-07-23T14:07:33;9.27;;;6.70;;
35540;SDS011;21650;48.840;9.162;2022-07-23T14:09:59;6.75;;;6.13;;
35540;SDS011;21650;48.840;9.162;2022-07-23T14:12:25;7.72;;;6.43;;
35540;SDS011;21650;48.840;9.162;2022-07-23T14:14:51;14.77;;;7.07;;
35540;SDS011;21650;48.840;9.162;2022-07-23T14:17:17;6.00;;;5.50;;
35540;SDS011;21650;48.840;9.162;2022-07-23T14:19:43;6.80;;;6.15;;
35540;SDS011;21650;48.840;9.162;2022-07-23T14:22:08;6.55;;;5.63;;
35540;SDS011;21650;48.840;9.162;2022-07-23T14:24:34;6.55;;;5.80;;
35540;SDS011;21650;48.840;9.162;2022-07-23T14:27:00;6.43;;;5.63;;
35540;SDS011;21650;48.840;9.162;2022-07-23T14:29:27;6.20;;;5.70;;
35540;SDS011;21650;48.840;9.162;2022-07-23T14:31:53;7.20;;;6.05;;
35540;SDS011;21650;48.840;9.162;2022-07-23T14:34:18;6.85;;;6.07;;
35540;SDS011;21650;48.840;9.162;2022-07-23T14:36:44;6.10;;;5.50;;
35540;SDS011;21650;48.840;9.162;2022-07-23T14:39:09;6.30;;;5.65;;
35540;SDS011;21650;48.840;9.162;2022-07-23T14:41:36;5.70;;;5.20;;
35540;SDS011;21650;48.840;9.162;2022-07-23T14:44:02;7.65;;;6.10;;
35540;SDS011;21650;48.840;9.162;2022-07-23T14:46:28;6.18;;;5.60;;
35540;SDS011;21650;48.840;9.162;2022-07-23T14:48:54;8.80;;;5.97;;
35540;SDS011;21650;48.840;9.162;2022-07-23T14:51:20;6.28;;;5.68;;
35540;SDS011;21650;48.840;9.162;2022-07-23T14:53:45;8.77;;;5.72;;
35540;SDS011;21650;48.840;9.162;2022-07-23T14:56:11;6.22;;;5.63;;
35540;SDS011;21650;48.840;9.162;2022-07-23T14:58:38;13.32;;;6.57;;
35540;SDS011;21650;48.840;9.162;2022-07-23T15:01:04;10.95;;;6.22;;
35540;SDS011;21650;48.840;9.162;2022-07-23T15:03:30;7.28;;;5.38;;
35540;SDS011;21650;48.840;9.162;2022-07-23T15:05:55;6.20;;;5.60;;
35540;SDS011;21650;48.840;9.162;2022-07-23T15:08:21;7.95;;;5.75;;
35540;SDS011;21650;48.840;9.162;2022-07-23T15:10:47;8.05;;;5.85;;
35540;SDS011;21650;48.840;9.162;2022-07-23T15:13:12;8.75;;;6.22;;
35540;SDS011;21650;48.840;9.162;2022-07-23T15:15:38;7.18;;;6.47;;
35540;SDS011;21650;48.840;9.162;2022-07-23T15:18:03;7.95;;;5.75;;
35540;SDS011;21650;48.840;9.162;2022-07-23T15:20:29;6.50;;;5.90;;
35540;SDS011;21650;48.840;9.162;2022-07-23T15:22:56;8.77;;;5.88;;
35540;SDS011;21650;48.840;9.162;2022-07-23T15:25:21;6.05;;;5.50;;
35540;SDS011;21650;48.840;9.162;2022-07-23T15:27:47;6.38;;;5.53;;
35540;SDS011;21650;48.840;9.162;2022-07-23T15:30:12;7.13;;;6.38;;
35540;SDS011;21650;48.840;9.162;2022-07-23T15:32:38;6.05;;;5.45;;
35540;SDS011;21650;48.840;9.162;2022-07-23T15:35:04;6.20;;;5.60;;
35540;SDS011;21650;48.840;9.162;2022-07-23T15:37:31;7.05;;;5.85;;
35540;SDS011;21650;48.840;9.162;2022-07-23T15:39:57;7.07;;;6.00;;
35540;SDS011;21650;48.840;9.162;2022-07-23T15:42:23;6.55;;;5.95;;
35540;SDS011;21650;48.840;9.162;2022-07-23T15:44:48;5.68;;;5.18;;
35540;SDS011;21650;48.840;9.162;2022-07-23T15:47:14;7.15;;;6.10;;
35540;SDS011;21650;48.840;9.162;2022-07-23T15:49:42;6.55;;;5.90;;
35540;SDS011;21650;48.840;9.162;2022-07-23T15:52:07;8.00;;;6.20;;
35540;SDS011;21650;48.840;9.162;2022-07-23T15:54:36;7.03;;;6.18;;
35540;SDS011;21650;48.840;9.162;2022-07-23T15:57:03;7.90;;;6.38;;
35540;SDS011;21650;48.840;9.162;2022-07-23T15:59:29;6.90;;;6.30;;
35540;SDS011;21650;48.840;9.162;2022-07-23T16:01:55;7.53;;;6.43;;
35540;SDS011;21650;48.840;9.162;2022-07-23T16:04:20;8.32;;;6.35;;
35540;SDS011;21650;48.840;9.162;2022-07-23T16:06:46;6.22;;;5.63;;
35540;SDS011;21650;48.840;9.162;2022-07-23T16:09:11;6.97;;;5.75;;
35540;SDS011;21650;48.840;9.162;2022-07-23T16:11:37;7.30;;;5.85;;
35540;SDS011;21650;48.840;9.162;2022-07-23T16:14:02;6.90;;;5.60;;
35540;SDS011;21650;48.840;9.162;2022-07-23T16:16:28;6.40;;;5.70;;
35540;SDS011;21650;48.840;9.162;2022-07-23T16:18:54;8.15;;;6.18;;
35540;SDS011;21650;48.840;9.162;2022-07-23T16:21:21;8.25;;;5.93;;
35540;SDS011;21650;48.840;9.162;2022-07-23T16:23:48;9.23;;;6.25;;
35540;SDS011;21650;48.840;9.162;2022-07-23T16:26:13;7.13;;;6.30;;
35540;SDS011;21650;48.840;9.162;2022-07-23T16:28:40;7.03;;;6.32;;
35540;SDS011;21650;48.840;9.162;2022-07-23T16:31:06;6.60;;;5.95;;
35540;SDS011;21650;48.840;9.162;2022-07-23T16:33:32;7.18;;;6.15;;
35540;SDS011;21650;48.840;9.162;2022-07-23T16:35:58;9.73;;;6.95;;
35540;SDS011;21650;48.840;9.162;2022-07-23T16:38:24;8.75;;;7.43;;
35540;SDS011;21650;48.840;9.162;2022-07-23T16:40:50;8.02;;;7.22;;
35540;SDS011;21650;48.840;9.162;2022-07-23T16:43:16;10.63;;;7.78;;
35540;SDS011;21650;48.840;9.162;2022-07-23T16:45:43;8.80;;;7.88;;
35540;SDS011;21650;48.840;9.162;2022-07-23T16:48:09;14.00;;;7.47;;
35540;SDS011;21650;48.840;9.162;2022-07-23T16:50:34;8.73;;;7.30;;
35540;SDS011;21650;48.840;9.162;2022-07-23T16:53:00;8.77;;;7.45;;
35540;SDS011;21650;48.840;9.162;2022-07-23T16:55:25;8.38;;;7.47;;
35540;SDS011;21650;48.840;9.162;2022-07-23T16:57:51;11.32;;;8.18;;
35540;SDS011;21650;48.840;9.162;2022-07-23T17:00:16;8.02;;;7.22;;
35540;SDS011;21650;48.840;9.162;2022-07-23T17:02:42;10.15;;;8.05;;
35540;SDS011;21650;48.840;9.162;2022-07-23T17:05:08;8.13;;;7.32;;
35540;SDS011;21650;48.840;9.162;2022-07-23T17:07:34;10.43;;;6.93;;
35540;SDS011;21650;48.840;9.162;2022-07-23T17:10:01;9.55;;;8.55;;
35540;SDS011;21650;48.840;9.162;2022-07-23T17:12:28;9.13;;;7.43;;
35540;SDS011;21650;48.840;9.162;2022-07-23T17:14:54;10.07;;;7.65;;
35540;SDS011;21650;48.840;9.162;2022-07-23T17:17:19;9.23;;;7.88;;
35540;SDS011;21650;48.840;9.162;2022-07-23T17:19:45;8.80;;;8.00;;
35540;SDS011;21650;48.840;9.162;2022-07-23T17:22:10;11.50;;;8.25;;
35540;SDS011;21650;48.840;9.162;2022-07-23T17:24:36;8.75;;;7.95;;
35540;SDS011;21650;48.840;9.162;2022-07-23T17:27:03;9.15;;;8.25;;
35540;SDS011;21650;48.840;9.162;2022-07-23T17:29:29;7.97;;;7.18;;
35540;SDS011;21650;48.840;9.162;2022-07-23T17:31:54;9.40;;;8.02;;
35540;SDS011;21650;48.840;9.162;2022-07-23T17:34:20;9.15;;;8.25;;
35540;SDS011;21650;48.840;9.162;2022-07-23T17:36:46;12.20;;;7.97;;
35540;SDS011;21650;48.840;9.162;2022-07-23T17:39:13;10.68;;;9.23;;
35540;SDS011;21650;48.840;9.162;2022-07-23T17:41:38;18.92;;;9.77;;
35540;SDS011;21650;48.840;9.162;2022-07-23T17:44:11;9.55;;;8.15;;
35540;SDS011;21650;48.840;9.162;2022-07-23T17:46:37;11.02;;;7.90;;
35540;SDS011;21650;48.840;9.162;2022-07-23T17:49:03;9.73;;;8.63;;
35540;SDS011;21650;48.840;9.162;2022-07-23T17:51:28;11.15;;;8.02;;
35540;SDS011;21650;48.840;9.162;2022-07-23T17:53:54;10.05;;;7.72;;
35540;SDS011;21650;48.840;9.162;2022-07-23T17:56:19;9.32;;;8.35;;
35540;SDS011;21650;48.840;9.162;2022-07-23T17:58:45;9.13;;;8.13;;
35540;SDS011;21650;48.840;9.162;2022-07-23T18:01:11;9.27;;;8.25;;
35540;SDS011;21650;48.840;9.162;2022-07-23T18:03:37;8.63;;;7.60;;
35540;SDS011;21650;48.840;9.162;2022-07-23T18:06:03;10.93;;;8.32;;
35540;SDS011;21650;48.840;9.162;2022-07-23T18:08:29;9.77;;;8.02;;
35540;SDS011;21650;48.840;9.162;2022-07-23T18:10:55;10.52;;;7.97;;
35540;SDS011;21650;48.840;9.162;2022-07-23T18:13:21;8.30;;;7.55;;
35540;SDS011;21650;48.840;9.162;2022-07-23T18:15:46;8.98;;;8.10;;
35540;SDS011;21650;48.840;9.162;2022-07-23T18:18:12;9.73;;;7.82;;
35540;SDS011;21650;48.840;9.162;2022-07-23T18:20:37;8.75;;;7.95;;
35540;SDS011;21650;48.840;9.162;2022-07-23T18:23:03;9.80;;;8.80;;
35540;SDS011;21650;48.840;9.162;2022-07-23T18:25:28;9.15;;;7.85;;
35540;SDS011;21650;48.840;9.162;2022-07-23T18:27:54;9.63;;;8.60;;
35540;SDS011;21650;48.840;9.162;2022-07-23T18:30:20;9.80;;;8.80;;
35540;SDS011;21650;48.840;9.162;2022-07-23T18:32:46;9.27;;;8.35;;
35540;SDS011;21650;48.840;9.162;2022-07-23T18:35:11;9.50;;;8.60;;
35540;SDS011;21650;48.840;9.162;2022-07-23T18:37:37;8.80;;;7.78;;
35540;SDS011;21650;48.840;9.162;2022-07-23T18:40:04;9.90;;;8.82;;
35540;SDS011;21650;48.840;9.162;2022-07-23T18:42:31;10.82;;;8.40;;
35540;SDS011;21650;48.840;9.162;2022-07-23T18:44:57;9.25;;;8.30;;
35540;SDS011;21650;48.840;9.162;2022-07-23T18:47:22;9.13;;;8.20;;
35540;SDS011;21650;48.840;9.162;2022-07-23T18:49:48;10.55;;;8.48;;
35540;SDS011;21650;48.840;9.162;2022-07-23T18:52:14;10.75;;;8.45;;
35540;SDS011;21650;48.840;9.162;2022-07-23T18:54:39;9.80;;;7.90;;
35540;SDS011;21650;48.840;9.162;2022-07-23T18:57:05;9.80;;;7.32;;
35540;SDS011;21650;48.840;9.162;2022-07-23T18:59:30;11.75;;;10.55;;
35540;SDS011;21650;48.840;9.162;2022-07-23T19:01:56;12.82;;;9.63;;
35540;SDS011;21650;48.840;9.162;2022-07-23T19:04:22;8.70;;;7.80;;
35540;SDS011;21650;48.840;9.162;2022-07-23T19:06:47;9.57;;;8.07;;
35540;SDS011;21650;48.840;9.162;2022-07-23T19:09:13;9.05;;;8.10;;